Time;durP1;ratioP1;P1;durP2;ratioP2;P2;SDS_P1;SDS_P2;PMS_P1;PMS_P2;Temp;Humidity;BMP_temperature;BMP_pressure;BME280_temperature;BME280_humidity;BME280_pressure;Samples;Min_cycle;Max_cycle;Signal;HPM_P1;HPM_P2
2022/04/01 00:02:18;;;;;;;0.68;0.52;;;21.00;36.50;;;;;;5001532;28;20128;-64
2022/04/01 00:04:44;;;;;;;0.40;0.40;;;21.00;36.50;;;;;;5004243;28;20065;-64
2022/04/01 00:07:10;;;;;;;1.25;0.40;;;21.00;36.50;;;;;;5003964;28;20037;-65
2022/04/01 00:09:37;;;;;;;0.98;0.60;;;21.00;36.50;;;;;;5018415;28;20038;-64
2022/04/01 00:12:06;;;;;;;0.77;0.43;;;20.90;36.50;;;;;;5003667;28;20068;-64
2022/04/01 00:14:32;;;;;;;0.70;0.60;;;20.90;37.30;;;;;;5017906;28;20074;-65
2022/04/01 00:16:58;;;;;;;0.40;0.40;;;20.90;36.50;;;;;;5000809;28;20072;-64
2022/04/01 00:19:24;;;;;;;1.45;0.40;;;20.90;36.60;;;;;;5004419;28;20050;-64
2022/04/01 00:21:50;;;;;;;0.30;0.30;;;20.80;36.50;;;;;;5009390;28;20049;-64
2022/04/01 00:24:15;;;;;;;0.50;0.50;;;20.80;36.50;;;;;;5000218;28;20054;-65
2022/04/01 00:26:41;;;;;;;0.45;0.40;;;20.80;36.40;;;;;;4992552;28;20054;-63
2022/04/01 00:29:15;;;;;;;0.63;0.50;;;20.80;36.40;;;;;;5000646;28;20053;-66
2022/04/01 00:31:43;;;;;;;0.50;0.40;;;20.80;36.40;;;;;;5003060;28;20449;-64
2022/04/01 00:34:15;;;;;;;0.43;0.40;;;20.80;36.40;;;;;;5000663;28;20050;-64
2022/04/01 00:36:48;;;;;;;1.17;0.50;;;20.80;36.50;;;;;;5001044;28;20037;-64
2022/04/01 00:39:16;;;;;;;1.42;0.63;;;20.70;36.50;;;;;;5003763;28;20141;-64
2022/04/01 00:41:44;;;;;;;0.70;0.40;;;20.70;36.40;;;;;;5002786;28;20085;-64
2022/04/01 00:44:13;;;;;;;0.60;0.40;;;20.70;36.50;;;;;;5002778;28;20129;-64
2022/04/01 00:46:43;;;;;;;0.85;0.57;;;20.70;36.40;;;;;;5003521;28;20057;-65
2022/04/01 00:49:09;;;;;;;0.73;0.60;;;20.70;36.50;;;;;;5003538;28;20069;-64
2022/04/01 00:51:37;;;;;;;0.55;0.50;;;20.70;36.40;;;;;;4983266;28;20626;-64
2022/04/01 00:54:03;;;;;;;1.35;0.50;;;20.60;36.40;;;;;;4999988;28;20116;-66
2022/04/01 00:56:31;;;;;;;0.70;0.60;;;20.60;36.40;;;;;;4982544;28;20049;-63
2022/04/01 00:58:57;;;;;;;0.50;0.50;;;20.60;37.20;;;;;;4984172;28;20125;-63
2022/04/01 01:01:24;;;;;;;0.70;0.52;;;20.60;36.50;;;;;;5001303;28;20124;-64
2022/04/01 01:03:50;;;;;;;0.70;0.60;;;20.60;36.40;;;;;;4977759;28;21051;-65
2022/04/01 01:06:17;;;;;;;1.10;0.45;;;20.50;36.40;;;;;;4999405;28;20517;-66
2022/04/01 01:08:42;;;;;;;1.85;0.60;;;20.60;36.50;;;;;;5000396;28;20124;-64
2022/04/01 01:11:09;;;;;;;0.60;0.50;;;20.50;36.40;;;;;;4980460;28;20604;-64
2022/04/01 01:13:34;;;;;;;0.60;0.40;;;20.60;36.50;;;;;;5006265;28;20568;-65
2022/04/01 01:16:00;;;;;;;0.40;0.40;;;20.50;36.50;;;;;;4988122;28;20050;-64
2022/04/01 01:18:25;;;;;;;0.30;0.30;;;20.50;36.40;;;;;;5005022;28;20478;-64
2022/04/01 01:20:51;;;;;;;0.80;0.30;;;20.50;36.50;;;;;;5004945;28;20057;-64
2022/04/01 01:23:17;;;;;;;0.65;0.40;;;20.50;36.50;;;;;;5005153;28;20200;-65
2022/04/01 01:25:45;;;;;;;0.40;0.40;;;20.50;36.50;;;;;;5005274;28;20116;-66
2022/04/01 01:28:11;;;;;;;0.70;0.60;;;20.40;36.40;;;;;;4987291;28;20041;-65
2022/04/01 01:30:37;;;;;;;0.60;0.40;;;20.40;36.40;;;;;;5002070;28;20053;-64
2022/04/01 01:33:04;;;;;;;0.52;0.50;;;20.40;36.50;;;;;;5004771;28;20046;-66
2022/04/01 01:35:29;;;;;;;0.50;0.50;;;20.40;36.40;;;;;;5003894;28;20486;-66
2022/04/01 01:37:55;;;;;;;0.60;0.60;;;20.40;36.50;;;;;;4986653;28;20041;-65
2022/04/01 01:40:20;;;;;;;0.50;0.50;;;20.40;36.40;;;;;;4988021;28;20061;-64
2022/04/01 01:42:46;;;;;;;0.70;0.40;;;20.40;36.50;;;;;;5004771;28;20041;-64
2022/04/01 01:45:12;;;;;;;0.47;0.43;;;20.30;36.40;;;;;;5005626;28;20072;-64
2022/04/01 01:47:37;;;;;;;0.40;0.38;;;20.40;36.50;;;;;;4987965;28;20073;-64
2022/04/01 01:55:32;;;;;;;0.47;0.40;;;20.30;36.50;;;;;;4987279;28;20060;-63
2022/04/01 01:57:58;;;;;;;0.30;0.30;;;20.30;36.50;;;;;;5005516;28;20129;-64
2022/04/01 02:00:25;;;;;;;0.65;0.32;;;20.30;36.50;;;;;;5003260;28;20046;-64
2022/04/01 02:02:51;;;;;;;0.60;0.50;;;20.20;36.40;;;;;;4964213;28;20038;-65
2022/04/01 02:05:16;;;;;;;0.98;0.40;;;20.30;36.50;;;;;;4983823;28;20555;-63
2022/04/01 02:07:47;;;;;;;1.25;0.47;;;20.30;36.50;;;;;;5003068;28;20129;-64
2022/04/01 02:10:14;;;;;;;0.70;0.50;;;20.20;36.40;;;;;;5005461;28;20096;-65
2022/04/01 02:12:41;;;;;;;0.68;0.60;;;20.20;36.40;;;;;;5001483;28;20049;-64
2022/04/01 02:15:10;;;;;;;0.50;0.50;;;20.20;36.40;;;;;;5005165;28;20045;-64
2022/04/01 02:17:40;;;;;;;1.48;0.32;;;20.20;36.40;;;;;;4961849;28;20513;-64
2022/04/01 02:20:09;;;;;;;0.38;0.38;;;20.20;36.40;;;;;;4999819;28;20061;-65
2022/04/01 02:22:35;;;;;;;0.50;0.43;;;20.20;36.40;;;;;;4983748;28;20046;-64
2022/04/01 02:25:03;;;;;;;0.70;0.50;;;20.20;36.40;;;;;;4979958;28;20038;-63
2022/04/01 02:27:30;;;;;;;1.58;0.40;;;20.20;36.30;;;;;;4985788;28;20582;-64
2022/04/01 02:29:56;;;;;;;0.40;0.40;;;20.10;36.30;;;;;;5002321;28;20045;-65
2022/04/01 02:32:23;;;;;;;1.00;0.50;;;20.10;36.30;;;;;;5003617;28;20042;-64
2022/04/01 02:34:49;;;;;;;1.25;0.50;;;20.10;36.30;;;;;;4984105;28;20048;-64
2022/04/01 02:37:16;;;;;;;0.82;0.50;;;20.10;36.30;;;;;;4986325;28;20046;-64
2022/04/01 02:39:42;;;;;;;0.60;0.43;;;20.10;36.30;;;;;;5003987;28;20773;-64
2022/04/01 02:42:08;;;;;;;0.40;0.40;;;20.10;36.20;;;;;;5004340;28;20057;-63
2022/04/01 02:44:34;;;;;;;0.60;0.50;;;20.00;36.30;;;;;;4993077;28;20052;-64
2022/04/01 02:47:00;;;;;;;0.38;0.38;;;20.00;36.30;;;;;;4992873;28;20497;-64
2022/04/01 02:49:26;;;;;;;0.43;0.38;;;20.10;36.30;;;;;;5002578;28;20962;-65
2022/04/01 02:51:53;;;;;;;1.33;0.50;;;20.00;36.30;;;;;;4992738;28;20053;-64
2022/04/01 02:54:20;;;;;;;0.63;0.43;;;20.00;36.20;;;;;;5003584;28;20099;-64
2022/04/01 02:56:46;;;;;;;0.47;0.30;;;20.00;36.30;;;;;;4985361;28;20081;-64
2022/04/01 02:59:12;;;;;;;0.43;0.35;;;20.00;36.30;;;;;;5003588;28;20406;-64
2022/04/01 03:01:40;;;;;;;0.77;0.45;;;20.00;36.20;;;;;;5003214;28;20041;-65
2022/04/01 03:04:11;;;;;;;0.60;0.50;;;20.00;36.20;;;;;;4979622;28;20441;-64
2022/04/01 03:06:43;;;;;;;1.10;0.30;;;20.00;36.30;;;;;;4985152;28;20048;-64
2022/04/01 03:09:09;;;;;;;0.82;0.40;;;20.00;36.30;;;;;;4985062;28;20053;-65
2022/04/01 03:11:36;;;;;;;0.22;0.22;;;20.00;36.30;;;;;;5002683;28;20119;-64
2022/04/01 03:14:03;;;;;;;0.50;0.40;;;20.00;36.30;;;;;;4978209;28;20034;-64
2022/04/01 03:16:29;;;;;;;0.73;0.30;;;20.00;36.30;;;;;;5000658;28;20700;-64
2022/04/01 03:18:59;;;;;;;0.85;0.55;;;19.90;36.20;;;;;;5003122;28;20038;-64
2022/04/01 03:21:25;;;;;;;0.95;0.43;;;19.90;36.20;;;;;;5003295;28;20367;-63
2022/04/01 03:23:51;;;;;;;0.70;0.40;;;19.90;36.20;;;;;;5003361;28;20100;-64
2022/04/01 03:26:17;;;;;;;0.50;0.50;;;19.90;36.20;;;;;;5002821;28;21680;-64
2022/04/01 03:28:43;;;;;;;1.40;0.50;;;19.90;36.20;;;;;;5001517;28;20046;-63
2022/04/01 03:31:09;;;;;;;0.32;0.32;;;19.90;36.20;;;;;;5003002;28;20448;-65
2022/04/01 03:33:36;;;;;;;1.15;0.32;;;19.90;36.20;;;;;;4990373;28;20453;-64
2022/04/01 03:36:03;;;;;;;0.68;0.38;;;19.90;36.10;;;;;;4984795;28;20041;-63
2022/04/01 03:38:29;;;;;;;0.40;0.40;;;19.80;36.10;;;;;;4984619;28;20077;-64
2022/04/01 03:40:55;;;;;;;0.50;0.50;;;19.80;36.10;;;;;;4984700;28;20077;-64
2022/04/01 03:43:23;;;;;;;0.50;0.50;;;19.80;36.10;;;;;;5002422;28;20932;-63
2022/04/01 03:45:52;;;;;;;1.05;0.45;;;19.80;36.20;;;;;;5002390;28;21061;-64
2022/04/01 03:48:24;;;;;;;0.77;0.50;;;19.80;36.20;;;;;;5002354;28;20160;-64
2022/04/01 03:50:58;;;;;;;0.93;0.70;;;19.80;36.10;;;;;;5002432;28;20504;-64
2022/04/01 03:53:28;;;;;;;0.60;0.50;;;19.80;36.10;;;;;;4984695;28;20052;-66
2022/04/01 03:55:57;;;;;;;0.50;0.50;;;19.80;36.10;;;;;;5002779;28;20045;-65
2022/04/01 03:58:31;;;;;;;0.52;0.40;;;19.80;36.20;;;;;;4977692;28;20041;-64
2022/04/01 04:00:58;;;;;;;0.50;0.50;;;19.80;36.20;;;;;;4963382;28;20050;-64
2022/04/01 04:03:25;;;;;;;0.30;0.30;;;19.80;36.10;;;;;;4982248;28;20045;-64
2022/04/01 04:05:51;;;;;;;0.60;0.60;;;19.80;36.10;;;;;;5000253;28;20073;-64
2022/04/01 04:08:22;;;;;;;0.47;0.30;;;19.80;36.10;;;;;;5001682;28;20177;-64
2022/04/01 04:10:49;;;;;;;0.55;0.50;;;19.70;36.10;;;;;;5000744;28;20503;-64
2022/04/01 04:13:16;;;;;;;0.50;0.40;;;19.70;36.10;;;;;;5001097;28;20052;-64
2022/04/01 04:16:09;;;;;;;0.88;0.52;;;19.70;36.00;;;;;;5002840;28;20853;-64
2022/04/01 04:18:45;;;;;;;0.77;0.52;;;19.70;36.00;;;;;;4981393;28;20049;-64
2022/04/01 04:21:31;;;;;;;1.05;0.70;;;19.70;36.10;;;;;;4979701;28;20050;-64
2022/04/01 04:24:01;;;;;;;0.63;0.47;;;19.70;36.10;;;;;;5002836;28;20045;-64
2022/04/01 04:26:32;;;;;;;0.77;0.32;;;19.70;36.20;;;;;;4999626;28;20034;-64
2022/04/01 04:29:12;;;;;;;0.60;0.40;;;19.70;36.20;;;;;;4998138;28;20033;-63
2022/04/01 04:32:02;;;;;;;1.10;0.43;;;19.70;36.30;;;;;;4981978;28;20048;-64
2022/04/01 04:34:36;;;;;;;0.98;0.50;;;19.70;36.30;;;;;;4983018;28;20083;-64
2022/04/01 04:37:04;;;;;;;0.50;0.30;;;19.70;36.20;;;;;;5002469;28;20038;-65
2022/04/01 04:39:36;;;;;;;0.80;0.60;;;19.70;36.30;;;;;;4986262;28;20453;-64
2022/04/01 04:42:04;;;;;;;0.60;0.60;;;19.70;36.30;;;;;;5000210;28;20100;-64
2022/04/01 04:44:30;;;;;;;0.57;0.40;;;19.80;36.30;;;;;;5015930;28;20050;-65
2022/04/01 04:47:01;;;;;;;0.30;0.30;;;19.70;36.30;;;;;;5000383;28;20041;-66
2022/04/01 04:49:28;;;;;;;0.90;0.60;;;19.80;36.30;;;;;;5002061;28;20037;-65
2022/04/01 04:51:54;;;;;;;0.75;0.50;;;19.70;36.30;;;;;;5000781;28;20139;-64
2022/04/01 04:54:21;;;;;;;1.33;0.70;;;19.80;36.40;;;;;;4999647;28;20139;-63
2022/04/01 04:56:49;;;;;;;0.80;0.50;;;19.70;36.40;;;;;;4998341;28;20924;-65
2022/04/01 04:59:18;;;;;;;0.32;0.32;;;19.80;36.50;;;;;;5002761;28;20045;-65
2022/04/01 05:01:54;;;;;;;0.52;0.50;;;19.80;36.60;;;;;;5016061;28;20112;-64
2022/04/01 05:04:48;;;;;;;0.50;0.50;;;19.80;36.70;;;;;;5001810;28;20080;-64
2022/04/01 05:07:47;;;;;;;0.40;0.40;;;19.80;36.80;;;;;;5016824;28;20069;-65
2022/04/01 05:10:22;;;;;;;1.10;0.40;;;19.80;36.70;;;;;;5001490;28;20046;-65
2022/04/01 05:13:02;;;;;;;0.90;0.40;;;19.80;36.70;;;;;;5016206;28;20191;-64
2022/04/01 05:15:30;;;;;;;0.57;0.47;;;19.80;36.70;;;;;;5008498;28;20057;-64
2022/04/01 05:18:10;;;;;;;0.47;0.45;;;19.80;36.70;;;;;;5010669;28;20140;-64
2022/04/01 05:20:38;;;;;;;0.75;0.55;;;19.90;36.70;;;;;;4999676;28;20043;-63
2022/04/01 05:23:15;;;;;;;0.63;0.50;;;19.90;36.70;;;;;;4998542;28;20053;-66
2022/04/01 05:25:55;;;;;;;0.50;0.50;;;19.90;36.60;;;;;;5014591;28;20095;-65
2022/04/01 05:28:24;;;;;;;1.75;0.52;;;19.90;36.60;;;;;;5013699;28;20100;-64
2022/04/01 05:30:58;;;;;;;1.20;0.50;;;19.90;36.60;;;;;;4997344;28;20075;-64
2022/04/01 05:33:27;;;;;;;1.33;0.40;;;19.90;36.70;;;;;;4999545;28;20054;-64
2022/04/01 05:35:53;;;;;;;1.55;0.50;;;19.90;36.60;;;;;;4999937;28;20042;-64
2022/04/01 05:38:22;;;;;;;2.70;0.60;;;19.90;36.60;;;;;;4997246;28;20049;-66
2022/04/01 05:40:50;;;;;;;1.20;0.57;;;19.90;36.60;;;;;;4991123;28;20081;-64
2022/04/01 05:43:16;;;;;;;1.58;0.50;;;19.90;36.60;;;;;;4969733;28;20550;-65
2022/04/01 05:45:45;;;;;;;1.05;0.65;;;20.00;36.60;;;;;;4988338;28;20141;-64
2022/04/01 05:48:11;;;;;;;1.35;0.50;;;19.90;36.60;;;;;;4986458;28;20049;-64
2022/04/01 05:50:41;;;;;;;0.90;0.60;;;20.00;36.60;;;;;;4988329;28;20425;-63
2022/04/01 05:53:08;;;;;;;0.90;0.50;;;19.90;36.70;;;;;;4986973;28;20107;-67
2022/04/01 05:55:37;;;;;;;1.33;0.80;;;20.00;36.50;;;;;;4970753;28;20141;-64
2022/04/01 05:58:04;;;;;;;3.13;0.80;;;20.00;36.50;;;;;;4970716;28;20050;-64
2022/04/01 06:00:55;;;;;;;0.68;0.55;;;19.90;37.30;;;;;;4993031;28;20045;-64
2022/04/01 06:03:44;;;;;;;2.17;0.73;;;20.00;36.50;;;;;;4974723;28;20078;-61
2022/04/01 06:06:27;;;;;;;2.83;0.50;;;20.00;36.50;;;;;;4992447;28;20050;-63
2022/04/01 06:09:15;;;;;;;0.60;0.30;;;20.00;36.60;;;;;;4970063;28;20099;-64
2022/04/01 06:12:08;;;;;;;3.22;0.52;;;20.00;36.60;;;;;;4984631;28;20453;-65
2022/04/01 06:15:08;;;;;;;0.60;0.40;;;20.00;36.70;;;;;;4988430;28;20501;-65
2022/04/01 06:17:40;;;;;;;0.60;0.47;;;20.00;36.70;;;;;;4990792;28;20041;-64
2022/04/01 06:20:07;;;;;;;1.48;0.50;;;20.00;36.80;;;;;;4992504;28;20049;-66
2022/04/01 06:22:41;;;;;;;3.85;0.60;;;20.00;36.80;;;;;;4993495;28;20375;-64
2022/04/01 06:25:13;;;;;;;0.95;0.55;;;20.00;36.80;;;;;;4994494;28;20048;-63
2022/04/01 06:27:44;;;;;;;1.40;0.60;;;20.10;36.80;;;;;;4990791;28;20054;-63
2022/04/01 06:30:11;;;;;;;;;;;20.00;36.80;;;;;;4995234;28;20127;-64
2022/04/01 06:32:52;;;;;;;1.67;0.60;;;20.00;36.70;;;;;;4993232;28;19926;-64
2022/04/01 06:35:28;;;;;;;1.00;0.40;;;20.00;36.80;;;;;;4989653;28;20050;-64
2022/04/01 06:38:05;;;;;;;0.90;0.40;;;20.00;36.80;;;;;;4969969;28;20060;-64
2022/04/01 06:40:53;;;;;;;5.70;0.60;;;20.10;36.80;;;;;;4987734;28;20051;-64
2022/04/01 06:43:18;;;;;;;2.08;0.88;;;20.10;36.80;;;;;;4991829;28;20505;-64
2022/04/01 06:45:44;;;;;;;2.90;0.60;;;20.10;36.70;;;;;;4988414;28;20133;-63
2022/04/01 06:48:10;;;;;;;2.15;0.57;;;20.10;36.70;;;;;;4967065;28;20054;-64
2022/04/01 06:50:37;;;;;;;0.98;0.50;;;20.10;36.60;;;;;;4987883;28;20057;-64
2022/04/01 06:53:02;;;;;;;3.08;0.40;;;20.10;36.60;;;;;;4970395;28;20661;-65
2022/04/01 06:55:28;;;;;;;1.65;0.50;;;20.10;36.60;;;;;;4986423;28;20039;-64
2022/04/01 06:57:54;;;;;;;3.28;0.68;;;20.20;36.70;;;;;;4985952;28;20065;-64
2022/04/01 07:00:20;;;;;;;0.75;0.52;;;20.10;36.70;;;;;;4986207;28;20622;-63
2022/04/01 07:02:46;;;;;;;2.42;0.60;;;20.20;36.90;;;;;;4992217;28;20049;-63
2022/04/01 07:05:12;;;;;;;0.45;0.43;;;20.20;36.90;;;;;;4985954;28;20042;-63
2022/04/01 07:07:41;;;;;;;3.75;0.50;;;20.20;36.80;;;;;;4988475;28;20081;-64
2022/04/01 07:10:10;;;;;;;0.73;0.50;;;20.20;36.90;;;;;;4987053;28;20042;-65
2022/04/01 07:12:37;;;;;;;0.60;0.30;;;20.20;36.90;;;;;;4969577;28;20046;-63
2022/04/01 07:15:03;;;;;;;0.60;0.60;;;20.20;36.90;;;;;;4989488;28;20042;-64
2022/04/01 07:17:29;;;;;;;0.95;0.50;;;20.20;36.90;;;;;;4987851;28;20157;-64
2022/04/01 07:19:55;;;;;;;2.20;0.40;;;20.20;37.00;;;;;;4989471;28;20069;-65
2022/04/01 07:22:21;;;;;;;0.47;0.32;;;20.30;37.00;;;;;;4969819;28;20061;-63
2022/04/01 07:24:46;;;;;;;0.60;0.32;;;20.30;37.00;;;;;;4988933;28;20046;-66
2022/04/01 07:27:12;;;;;;;0.90;0.60;;;20.30;37.00;;;;;;4989296;28;20042;-66
2022/04/01 07:29:38;;;;;;;1.17;0.68;;;20.30;37.00;;;;;;4972237;28;20046;-66
2022/04/01 07:34:50;;;;;;;2.13;0.70;;;20.30;37.00;;;;;;4973461;28;20061;-66
2022/04/01 07:37:20;;;;;;;0.70;0.52;;;20.30;37.00;;;;;;4991227;28;20042;-63
2022/04/01 07:39:45;;;;;;;0.82;0.50;;;20.30;37.00;;;;;;4996022;28;20054;-61
2022/04/01 07:42:11;;;;;;;0.70;0.50;;;20.30;37.00;;;;;;5002693;28;20678;-63
2022/04/01 07:44:36;;;;;;;0.45;0.40;;;20.30;37.00;;;;;;4981928;28;21111;-63
2022/04/01 07:47:02;;;;;;;0.57;0.50;;;20.40;37.00;;;;;;4999140;28;20069;-66
2022/04/01 07:49:28;;;;;;;1.10;0.40;;;20.40;37.10;;;;;;5000959;28;20034;-64
2022/04/01 07:51:53;;;;;;;0.98;0.40;;;20.40;37.10;;;;;;4965239;28;20065;-64
2022/04/01 07:54:19;;;;;;;0.60;0.30;;;20.40;37.10;;;;;;5001213;28;20041;-63
2022/04/01 07:56:45;;;;;;;0.80;0.40;;;20.40;37.10;;;;;;5002458;28;20495;-63
2022/04/01 07:59:15;;;;;;;1.10;0.50;;;20.40;37.20;;;;;;4984182;28;20133;-64
2022/04/01 08:01:41;;;;;;;1.20;0.50;;;20.40;37.50;;;;;;4999330;28;20046;-64
2022/04/01 08:04:07;;;;;;;1.55;0.77;;;20.40;37.60;;;;;;5001610;28;20073;-63
2022/04/01 08:06:32;;;;;;;2.67;0.60;;;20.40;37.70;;;;;;5003027;28;20402;-64
2022/04/01 08:08:59;;;;;;;1.02;0.50;;;20.40;37.90;;;;;;4984933;28;20044;-66
2022/04/01 08:11:28;;;;;;;1.40;0.63;;;20.40;38.10;;;;;;4984406;28;20077;-65
2022/04/01 08:13:54;;;;;;;2.85;0.60;;;20.50;38.50;;;;;;4975635;28;20499;-64
2022/04/01 08:16:20;;;;;;;2.15;0.60;;;20.50;38.70;;;;;;5001441;28;20489;-63
2022/04/01 08:18:46;;;;;;;1.73;0.73;;;20.50;38.80;;;;;;4983160;28;20045;-64
2022/04/01 08:21:11;;;;;;;1.63;0.45;;;20.50;38.90;;;;;;5003109;28;20966;-67
2022/04/01 08:23:37;;;;;;;1.88;0.52;;;20.50;39.00;;;;;;5002151;28;21091;-65
2022/04/01 08:26:07;;;;;;;0.85;0.47;;;20.60;39.10;;;;;;4982923;28;20038;-65
2022/04/01 08:28:33;;;;;;;0.90;0.60;;;20.50;39.30;;;;;;4984441;28;20517;-65
2022/04/01 08:30:59;;;;;;;1.27;0.60;;;20.50;39.40;;;;;;4983329;28;20046;-65
2022/04/01 08:33:24;;;;;;;0.88;0.60;;;20.60;39.50;;;;;;4981490;28;20046;-64
2022/04/01 08:35:50;;;;;;;0.40;0.40;;;20.60;39.60;;;;;;5000575;28;20038;-64
2022/04/01 08:38:16;;;;;;;1.55;0.60;;;20.60;39.60;;;;;;4981688;28;20137;-62
2022/04/01 08:40:42;;;;;;;2.20;0.68;;;20.60;39.50;;;;;;4998996;28;20519;-63
2022/04/01 08:43:08;;;;;;;2.38;0.73;;;20.60;39.50;;;;;;5002395;28;20421;-64
2022/04/01 08:45:35;;;;;;;0.88;0.60;;;20.60;39.30;;;;;;5001776;28;21011;-65
2022/04/01 08:48:03;;;;;;;2.42;0.60;;;20.60;39.30;;;;;;5001434;28;20405;-63
2022/04/01 08:50:28;;;;;;;1.58;0.70;;;20.60;39.40;;;;;;4982769;28;20137;-61
2022/04/01 08:52:54;;;;;;;3.55;1.10;;;20.60;39.50;;;;;;4999275;28;20042;-64
2022/04/01 08:55:19;;;;;;;1.73;0.82;;;20.70;39.70;;;;;;4983231;28;20053;-64
2022/04/01 08:57:45;;;;;;;0.60;0.60;;;20.70;39.70;;;;;;5002745;28;20045;-62
2022/04/01 09:00:13;;;;;;;7.47;0.95;;;20.70;39.80;;;;;;5001528;28;20045;-63
2022/04/01 09:02:40;;;;;;;2.95;0.93;;;20.80;39.80;;;;;;5001415;28;20486;-64
2022/04/01 09:05:08;;;;;;;3.22;0.60;;;20.80;39.80;;;;;;5003181;28;20063;-63
2022/04/01 09:07:34;;;;;;;2.88;0.82;;;20.80;39.90;;;;;;5001335;28;21012;-63
2022/04/01 09:10:03;;;;;;;2.55;0.98;;;20.80;39.80;;;;;;5000854;28;20579;-63
2022/04/01 09:12:29;;;;;;;1.70;0.70;;;20.90;39.80;;;;;;5000059;28;20041;-63
2022/04/01 09:14:55;;;;;;;5.57;0.82;;;20.90;39.60;;;;;;5002035;28;20402;-64
2022/04/01 09:17:22;;;;;;;2.83;0.90;;;20.90;39.60;;;;;;4998295;28;20034;-64
2022/04/01 09:19:48;;;;;;;0.80;0.70;;;20.90;39.70;;;;;;4984093;28;20038;-62
2022/04/01 09:22:25;;;;;;;0.85;0.70;;;20.90;39.70;;;;;;5001510;28;20580;-63
2022/04/01 09:24:55;;;;;;;2.65;0.90;;;20.90;39.70;;;;;;5001327;28;20076;-63
2022/04/01 09:27:46;;;;;;;0.98;0.90;;;20.90;39.80;;;;;;5002200;28;20073;-64
2022/04/01 09:30:19;;;;;;;2.20;1.10;;;20.90;39.80;;;;;;4985224;28;20054;-63
2022/04/01 09:32:47;;;;;;;0.90;0.88;;;20.90;39.80;;;;;;4981847;28;20069;-63
2022/04/01 09:35:14;;;;;;;2.55;1.10;;;20.90;39.80;;;;;;4985798;28;20077;-66
2022/04/01 09:37:48;;;;;;;2.30;1.00;;;20.90;39.80;;;;;;4982511;28;20046;-65
2022/04/01 09:40:17;;;;;;;1.15;1.02;;;20.90;39.70;;;;;;4984439;28;20503;-63
2022/04/01 09:42:53;;;;;;;2.60;1.02;;;20.90;39.50;;;;;;5003011;28;20119;-64
2022/04/01 09:45:21;;;;;;;1.92;1.33;;;20.90;39.50;;;;;;5001907;28;20472;-63
2022/04/01 09:48:01;;;;;;;3.10;1.20;;;20.90;39.40;;;;;;5003740;28;20045;-63
2022/04/01 09:50:30;;;;;;;2.78;1.10;;;20.90;39.50;;;;;;5003011;28;20520;-64
2022/04/01 09:53:09;;;;;;;2.13;1.40;;;20.90;39.40;;;;;;4983843;28;20482;-63
2022/04/01 09:55:41;;;;;;;1.52;1.05;;;20.90;39.30;;;;;;4979539;28;20470;-63
2022/04/01 09:58:07;;;;;;;2.88;1.25;;;20.90;39.30;;;;;;5005102;28;20046;-63
2022/04/01 10:00:34;;;;;;;3.83;1.15;;;20.90;39.30;;;;;;4994774;28;20037;-65
2022/04/01 10:02:59;;;;;;;2.10;1.20;;;20.90;39.20;;;;;;5000676;28;20512;-63
2022/04/01 10:05:26;;;;;;;3.83;1.40;;;20.90;39.10;;;;;;4980897;28;20046;-64
2022/04/01 10:07:53;;;;;;;2.13;1.40;;;20.90;39.00;;;;;;5001865;28;20041;-63
2022/04/01 10:10:19;;;;;;;1.48;1.38;;;20.90;39.00;;;;;;5004884;28;20045;-64
2022/04/01 10:12:47;;;;;;;3.10;1.42;;;20.90;38.90;;;;;;4986272;28;20056;-61
2022/04/01 10:15:14;;;;;;;1.67;1.48;;;20.90;38.70;;;;;;5005543;28;20816;-60
2022/04/01 10:17:41;;;;;;;1.45;1.27;;;20.90;38.70;;;;;;5004234;28;20140;-61
2022/04/01 10:20:08;;;;;;;1.65;1.42;;;20.90;38.50;;;;;;5003305;28;20476;-61
2022/04/01 10:22:35;;;;;;;1.80;1.58;;;20.90;38.50;;;;;;5001571;28;20038;-61
2022/04/01 10:25:11;;;;;;;1.48;1.38;;;20.90;38.40;;;;;;4998929;28;20034;-61
2022/04/01 10:27:40;;;;;;;2.13;1.42;;;20.90;38.30;;;;;;4986974;28;20398;-63
2022/04/01 10:30:14;;;;;;;2.08;1.20;;;20.90;38.30;;;;;;5003188;28;20509;-62
2022/04/01 10:32:45;;;;;;;3.92;1.58;;;20.90;38.20;;;;;;4983727;28;20033;-64
2022/04/01 10:35:27;;;;;;;1.70;1.30;;;20.90;38.30;;;;;;5002436;28;20054;-65
2022/04/01 10:38:15;;;;;;;1.90;1.50;;;20.90;38.70;;;;;;5004311;28;20798;-63
2022/04/01 10:40:49;;;;;;;1.90;1.50;;;20.90;39.10;;;;;;4996484;28;20044;-64
2022/04/01 10:43:26;;;;;;;2.58;1.58;;;20.90;39.10;;;;;;5018199;28;20064;-65
2022/04/01 10:46:05;;;;;;;3.38;1.77;;;20.90;39.30;;;;;;5017316;28;20120;-63
2022/04/01 10:51:37;;;;;;;3.60;1.70;;;20.90;39.60;;;;;;5019574;28;20072;-65
2022/04/01 10:54:23;;;;;;;4.03;2.05;;;20.90;39.80;;;;;;5019620;28;20084;-64
2022/04/01 10:57:00;;;;;;;2.42;1.45;;;20.90;40.00;;;;;;4989346;28;20522;-64
2022/04/01 10:59:27;;;;;;;3.53;1.80;;;20.90;39.90;;;;;;4999488;28;20543;-64
2022/04/01 11:01:52;;;;;;;2.92;1.67;;;20.90;40.00;;;;;;5000690;28;20084;-64
2022/04/01 11:04:17;;;;;;;2.05;1.55;;;20.90;40.10;;;;;;5012247;28;20050;-64
2022/04/01 11:06:52;;;;;;;2.50;1.67;;;20.90;40.10;;;;;;4999063;28;20033;-65
2022/04/01 11:09:37;;;;;;;3.60;1.70;;;20.90;40.20;;;;;;4996841;28;20038;-64
2022/04/01 11:12:15;;;;;;;3.42;1.42;;;20.90;40.20;;;;;;4997697;28;20056;-65
2022/04/01 11:14:59;;;;;;;3.38;1.70;;;20.90;40.20;;;;;;4999780;28;20390;-63
2022/04/01 11:17:26;;;;;;;1.77;1.50;;;20.90;40.40;;;;;;5008421;28;20038;-62
2022/04/01 11:20:12;;;;;;;2.45;1.58;;;20.90;40.40;;;;;;4999865;28;20437;-63
2022/04/01 11:22:52;;;;;;;2.78;1.60;;;20.90;40.90;;;;;;5002531;28;20462;-63
2022/04/01 11:25:33;;;;;;;2.58;1.63;;;20.90;41.00;;;;;;4983275;28;20049;-63
2022/04/01 11:28:01;;;;;;;3.95;1.55;;;20.90;41.00;;;;;;5003161;28;20160;-64
2022/04/01 11:30:29;;;;;;;3.20;1.98;;;20.90;40.90;;;;;;5002033;28;20046;-63
2022/04/01 11:33:05;;;;;;;2.10;1.60;;;20.90;40.70;;;;;;5003821;28;20049;-64
2022/04/01 11:35:34;;;;;;;1.45;1.35;;;20.90;40.70;;;;;;5004348;28;20045;-64
2022/04/01 11:38:00;;;;;;;2.45;1.50;;;20.90;40.60;;;;;;5002080;28;20434;-64
2022/04/01 11:40:29;;;;;;;1.60;1.50;;;20.90;40.50;;;;;;4990001;28;20057;-64
2022/04/01 11:43:03;;;;;;;1.60;1.40;;;20.90;40.50;;;;;;4971770;28;20046;-64
2022/04/01 11:45:33;;;;;;;2.42;1.50;;;20.90;40.50;;;;;;4974980;28;20042;-63
2022/04/01 11:48:00;;;;;;;3.93;1.50;;;20.90;40.40;;;;;;4975223;28;20042;-64
2022/04/01 11:50:26;;;;;;;2.97;1.45;;;20.90;40.40;;;;;;4993307;28;20045;-65
2022/04/01 11:52:55;;;;;;;5.07;1.20;;;20.90;40.30;;;;;;4974078;28;20042;-64
2022/04/01 11:55:28;;;;;;;1.55;1.40;;;20.90;40.20;;;;;;4991539;28;20049;-64
2022/04/01 11:57:57;;;;;;;1.92;1.38;;;20.90;40.10;;;;;;4991076;28;20165;-64
2022/04/01 12:00:27;;;;;;;1.92;1.30;;;20.90;40.10;;;;;;4989706;28;20053;-64
2022/04/01 12:02:54;;;;;;;1.92;1.15;;;20.90;40.10;;;;;;4991553;28;20919;-64
2022/04/01 12:05:21;;;;;;;1.50;1.35;;;20.90;40.70;;;;;;4964309;28;20051;-64
2022/04/01 12:10:38;;;;;;;2.28;1.05;;;20.90;39.80;;;;;;4990755;28;20205;-65
2022/04/01 12:13:07;;;;;;;1.50;1.20;;;20.90;39.80;;;;;;4975661;28;20482;-66
2022/04/01 12:15:43;;;;;;;1.98;1.20;;;20.90;39.80;;;;;;4970400;28;20052;-64
2022/04/01 12:18:14;;;;;;;2.97;1.13;;;20.90;39.80;;;;;;4989221;28;20942;-66
2022/04/01 12:20:40;;;;;;;1.17;1.08;;;20.90;39.80;;;;;;4965978;28;20169;-65
2022/04/01 12:23:06;;;;;;;1.58;1.25;;;20.90;39.80;;;;;;4971131;28;20104;-66
2022/04/01 12:25:35;;;;;;;2.70;1.20;;;20.90;39.80;;;;;;4989642;28;20030;-63
2022/04/01 12:28:05;;;;;;;2.45;1.40;;;20.90;39.90;;;;;;4973097;28;20030;-63
2022/04/01 12:30:55;;;;;;;2.47;1.10;;;20.90;40.10;;;;;;4989791;28;20042;-63
2022/04/01 12:33:29;;;;;;;1.83;1.08;;;20.90;40.50;;;;;;4985641;28;20502;-63
2022/04/01 12:36:08;;;;;;;1.50;1.05;;;20.80;40.60;;;;;;4991353;28;20117;-64
2022/04/01 12:38:39;;;;;;;1.05;0.80;;;20.80;40.90;;;;;;4972973;28;20141;-65
2022/04/01 12:41:06;;;;;;;;;;;20.80;41.00;;;;;;4991362;28;20145;-63
2022/04/01 12:43:33;;;;;;;6.72;1.48;;;20.80;41.70;;;;;;4993045;28;20334;-63
2022/04/01 12:46:00;;;;;;;2.50;1.10;;;20.80;42.70;;;;;;4990721;28;20463;-63
2022/04/01 12:48:26;;;;;;;3.83;1.20;;;20.80;41.90;;;;;;4972178;28;20041;-61
2022/04/01 12:50:57;;;;;;;2.60;1.20;;;20.80;42.20;;;;;;4970096;28;20089;-63
2022/04/01 12:53:22;;;;;;;3.92;1.10;;;20.80;42.50;;;;;;4968018;28;20042;-64
2022/04/01 12:55:48;;;;;;;1.45;0.80;;;20.80;42.30;;;;;;4986200;28;20049;-64
2022/04/01 12:58:14;;;;;;;2.97;1.10;;;20.80;42.30;;;;;;4970840;28;20046;-66
2022/04/01 13:00:40;;;;;;;2.88;1.02;;;20.80;42.80;;;;;;4982277;28;20672;-64
2022/04/01 13:03:06;;;;;;;2.13;0.95;;;20.80;43.00;;;;;;4986495;28;20120;-64
2022/04/01 13:05:32;;;;;;;3.83;1.08;;;20.90;43.10;;;;;;4971989;28;20507;-64
2022/04/01 13:07:58;;;;;;;4.82;1.10;;;20.90;43.20;;;;;;4990798;28;20461;-64
2022/04/01 13:10:24;;;;;;;1.48;0.90;;;20.90;44.90;;;;;;4988863;28;20108;-62
2022/04/01 13:12:52;;;;;;;5.20;1.27;;;20.90;45.40;;;;;;4988139;28;20034;-66
2022/04/01 13:15:24;;;;;;;3.22;1.00;;;20.90;45.70;;;;;;4989026;28;20108;-64